Time;durP1;ratioP1;P1;durP2;ratioP2;P2;SDS_P1;SDS_P2;PMS_P1;PMS_P2;Temp;Humidity;BMP_temperature;BMP_pressure;BME280_temperature;BME280_humidity;BME280_pressure;Samples;Min_cycle;Max_cycle;Signal;HPM_P1;HPM_P2
2021/11/26 00:02:11;;;;;;;40.60;20.42;;;;;;;;;;4938423;28;20217;-79
2021/11/26 00:04:38;;;;;;;30.55;17.52;;;;;;;;;;4936930;29;20194;-79
2021/11/26 00:07:05;;;;;;;34.15;17.13;;;;;;;;;;4934985;29;20305;-81
2021/11/26 00:09:34;;;;;;;37.50;18.27;;;;;;;;;;4935575;29;20214;-80
2021/11/26 00:12:01;;;;;;;30.25;16.70;;;;;;;;;;4935073;29;20209;-78
2021/11/26 00:14:30;;;;;;;30.15;15.82;;;;;;;;;;4935389;29;20222;-79
2021/11/26 00:16:58;;;;;;;30.17;16.00;;;;;;;;;;4938661;29;20218;-80
2021/11/26 00:19:26;;;;;;;29.52;17.67;;;;;;;;;;4938544;29;20281;-79
2021/11/26 00:21:53;;;;;;;35.83;16.92;;;;;;;;;;4934556;29;20202;-81
2021/11/26 00:24:21;;;;;;;32.40;18.63;;;;;;;;;;4941668;29;20210;-76
2021/11/26 00:26:50;;;;;;;32.92;18.85;;;;;;;;;;4943906;29;20309;-77
2021/11/26 00:29:17;;;;;;;29.95;15.77;;;;;;;;;;4943147;29;20668;-78
2021/11/26 00:31:48;;;;;;;30.63;17.23;;;;;;;;;;4933616;29;20205;-78
2021/11/26 00:34:15;;;;;;;30.73;16.25;;;;;;;;;;4935567;29;20230;-78
2021/11/26 00:36:42;;;;;;;30.58;16.27;;;;;;;;;;4933176;29;20222;-82
2021/11/26 00:39:10;;;;;;;35.50;18.00;;;;;;;;;;4937676;29;20206;-77
2021/11/26 00:41:37;;;;;;;31.00;16.15;;;;;;;;;;4935510;29;20640;-80
2021/11/26 00:44:06;;;;;;;36.05;17.40;;;;;;;;;;4938323;29;20202;-75
2021/11/26 00:46:33;;;;;;;38.50;17.88;;;;;;;;;;4939141;28;20620;-79
2021/11/26 00:49:01;;;;;;;31.02;17.73;;;;;;;;;;4941873;29;20228;-78
2021/11/26 00:51:30;;;;;;;38.75;18.95;;;;;;;;;;4934117;28;20229;-80
2021/11/26 00:53:58;;;;;;;36.88;18.77;;;;;;;;;;4934279;29;20250;-81
2021/11/26 00:56:25;;;;;;;31.80;19.60;;;;;;;;;;4932612;29;20492;-80
2021/11/26 00:58:52;;;;;;;36.85;19.58;;;;;;;;;;4935637;29;20262;-83
2021/11/26 01:01:20;;;;;;;29.90;17.60;;;;;;;;;;4926120;28;20195;-79
2021/11/26 01:03:48;;;;;;;37.20;19.00;;;;;;;;;;4942989;28;20194;-82
2021/11/26 01:06:15;;;;;;;41.60;20.30;;;;;;;;;;4961193;28;20210;-80
2021/11/26 01:08:42;;;;;;;41.10;19.77;;;;;;;;;;4949203;28;20209;-80
2021/11/26 01:11:09;;;;;;;41.85;19.23;;;;;;;;;;4933896;29;20199;-78
2021/11/26 01:13:37;;;;;;;34.15;19.48;;;;;;;;;;4935132;29;20887;-78
2021/11/26 01:16:04;;;;;;;40.45;21.33;;;;;;;;;;4933817;29;20550;-77
2021/11/26 01:18:33;;;;;;;38.58;20.27;;;;;;;;;;4939166;29;20226;-76
2021/11/26 01:21:00;;;;;;;35.60;18.85;;;;;;;;;;4941854;29;20199;-84
2021/11/26 01:23:27;;;;;;;39.38;20.65;;;;;;;;;;4935059;29;20222;-81
2021/11/26 01:25:55;;;;;;;33.15;18.27;;;;;;;;;;4934013;29;20214;-80
2021/11/26 01:28:22;;;;;;;38.05;20.00;;;;;;;;;;4934325;29;20226;-76
2021/11/26 01:30:50;;;;;;;35.58;19.92;;;;;;;;;;4934062;29;20209;-80
2021/11/26 01:33:18;;;;;;;37.70;19.90;;;;;;;;;;4939203;28;20230;-81
2021/11/26 01:35:50;;;;;;;35.13;19.38;;;;;;;;;;4954000;28;20202;-77
2021/11/26 01:38:18;;;;;;;37.40;18.95;;;;;;;;;;4915419;29;20227;-78
2021/11/26 01:40:47;;;;;;;41.05;20.38;;;;;;;;;;4916229;29;20226;-80
2021/11/26 01:43:15;;;;;;;34.30;18.83;;;;;;;;;;4931993;29;20229;-80
2021/11/26 01:45:44;;;;;;;34.67;18.92;;;;;;;;;;4934469;29;20290;-83
2021/11/26 01:48:11;;;;;;;42.28;17.25;;;;;;;;;;4937038;29;20226;-81
2021/11/26 01:50:38;;;;;;;39.78;18.52;;;;;;;;;;4955844;28;20205;-78
2021/11/26 01:53:07;;;;;;;40.08;19.00;;;;;;;;;;4934274;29;20203;-79
2021/11/26 01:55:35;;;;;;;30.73;18.05;;;;;;;;;;4930620;29;20211;-82
2021/11/26 01:58:02;;;;;;;30.90;18.15;;;;;;;;;;4932325;29;20240;-75
2021/11/26 02:00:32;;;;;;;33.13;18.17;;;;;;;;;;4934819;29;20285;-83
2021/11/26 02:02:59;;;;;;;37.50;19.15;;;;;;;;;;4933928;29;20210;-78
2021/11/26 02:05:26;;;;;;;32.25;18.05;;;;;;;;;;4941933;28;20199;-75
2021/11/26 02:07:54;;;;;;;36.05;18.20;;;;;;;;;;4945644;28;20218;-82
2021/11/26 02:10:23;;;;;;;33.95;18.30;;;;;;;;;;4936372;29;20656;-82
2021/11/26 02:12:50;;;;;;;34.60;17.40;;;;;;;;;;4929992;29;20412;-79
2021/11/26 02:15:19;;;;;;;28.75;16.92;;;;;;;;;;4934545;29;20252;-79
2021/11/26 02:17:46;;;;;;;38.05;16.25;;;;;;;;;;4933990;29;20265;-76
2021/11/26 02:20:16;;;;;;;32.28;16.13;;;;;;;;;;4935717;29;20199;-79
2021/11/26 02:22:43;;;;;;;31.45;16.52;;;;;;;;;;4935046;29;20213;-80
2021/11/26 02:25:11;;;;;;;28.75;14.93;;;;;;;;;;4934947;29;20199;-80
2021/11/26 02:27:39;;;;;;;34.85;15.10;;;;;;;;;;4940238;28;20313;-81
2021/11/26 02:30:13;;;;;;;28.10;13.98;;;;;;;;;;4943671;28;20197;-79
2021/11/26 02:32:41;;;;;;;38.78;14.63;;;;;;;;;;4943060;28;20218;-82
2021/11/26 02:35:09;;;;;;;25.00;12.90;;;;;;;;;;4914192;29;20223;-80
2021/11/26 02:37:38;;;;;;;36.10;14.07;;;;;;;;;;4922032;29;20265;-81
2021/11/26 02:40:06;;;;;;;27.45;13.88;;;;;;;;;;4933985;29;20199;-79
2021/11/26 02:42:33;;;;;;;28.77;14.30;;;;;;;;;;4933975;29;20560;-78
2021/11/26 02:45:01;;;;;;;27.33;12.98;;;;;;;;;;4928228;29;20564;-81
2021/11/26 02:47:28;;;;;;;29.50;15.57;;;;;;;;;;4935129;29;20223;-79
2021/11/26 02:49:55;;;;;;;24.98;12.57;;;;;;;;;;4940672;28;20203;-79
2021/11/26 02:52:22;;;;;;;31.40;13.85;;;;;;;;;;4937991;28;20198;-77
2021/11/26 02:54:53;;;;;;;25.77;12.75;;;;;;;;;;4932208;29;20704;-77
2021/11/26 02:57:22;;;;;;;27.85;12.95;;;;;;;;;;4927893;29;20230;-79
2021/11/26 02:59:49;;;;;;;23.90;12.45;;;;;;;;;;4934629;29;20579;-78
2021/11/26 03:02:16;;;;;;;28.60;13.98;;;;;;;;;;4930790;29;20227;-82
2021/11/26 03:04:43;;;;;;;22.95;12.15;;;;;;;;;;4937215;29;20577;-84
2021/11/26 03:07:11;;;;;;;29.88;12.73;;;;;;;;;;4940016;28;20583;-76
2021/11/26 03:09:38;;;;;;;28.23;14.55;;;;;;;;;;4935669;28;20504;-78
2021/11/26 03:12:08;;;;;;;27.00;14.73;;;;;;;;;;4933521;29;20723;-78
2021/11/26 03:14:36;;;;;;;28.92;13.60;;;;;;;;;;4932270;29;20222;-80
2021/11/26 03:17:03;;;;;;;32.83;13.80;;;;;;;;;;4933021;29;20214;-81
2021/11/26 03:19:31;;;;;;;20.63;12.13;;;;;;;;;;4932155;29;20203;-78
2021/11/26 03:21:58;;;;;;;29.42;14.27;;;;;;;;;;4940197;29;20202;-77
2021/11/26 03:24:25;;;;;;;31.52;13.93;;;;;;;;;;4941058;29;20194;-81
2021/11/26 03:26:52;;;;;;;24.85;13.23;;;;;;;;;;4934016;29;20214;-82
2021/11/26 03:29:21;;;;;;;24.48;13.73;;;;;;;;;;4934060;29;20229;-81
2021/11/26 03:31:48;;;;;;;28.17;14.05;;;;;;;;;;4933290;29;20199;-77
2021/11/26 03:34:16;;;;;;;26.92;14.50;;;;;;;;;;4930439;29;20222;-79
2021/11/26 03:36:43;;;;;;;24.80;13.77;;;;;;;;;;4933638;29;20222;-83
2021/11/26 03:39:10;;;;;;;24.13;13.90;;;;;;;;;;4940286;28;20198;-80
2021/11/26 03:41:38;;;;;;;26.17;13.15;;;;;;;;;;4942193;29;20209;-80
2021/11/26 03:44:05;;;;;;;21.70;13.80;;;;;;;;;;4950902;28;20202;-78
2021/11/26 03:46:34;;;;;;;27.33;13.13;;;;;;;;;;4946716;29;20687;-83
2021/11/26 03:49:01;;;;;;;29.25;14.35;;;;;;;;;;4930446;29;20217;-78
2021/11/26 03:51:28;;;;;;;27.58;13.10;;;;;;;;;;4932633;29;20217;-79
2021/11/26 03:53:56;;;;;;;24.33;13.57;;;;;;;;;;4935264;29;20297;-79
2021/11/26 03:56:23;;;;;;;22.65;12.57;;;;;;;;;;4940038;28;20270;-79
2021/11/26 03:58:50;;;;;;;30.98;13.13;;;;;;;;;;4937454;28;20583;-82
2021/11/26 04:01:17;;;;;;;21.48;13.13;;;;;;;;;;4930314;29;20206;-79
2021/11/26 04:03:46;;;;;;;24.23;13.63;;;;;;;;;;4930278;29;20198;-78
2021/11/26 04:06:13;;;;;;;23.88;12.93;;;;;;;;;;4930323;29;20202;-77
2021/11/26 04:08:42;;;;;;;30.33;13.68;;;;;;;;;;4930070;29;20682;-81
2021/11/26 04:11:10;;;;;;;23.30;13.88;;;;;;;;;;4916062;29;20657;-81
2021/11/26 04:13:37;;;;;;;23.00;12.60;;;;;;;;;;4931496;29;20652;-77
2021/11/26 04:16:12;;;;;;;28.83;14.55;;;;;;;;;;4936634;28;20223;-76
2021/11/26 04:18:39;;;;;;;23.20;13.43;;;;;;;;;;4940020;29;20651;-75
2021/11/26 04:21:07;;;;;;;29.45;13.55;;;;;;;;;;4931394;29;20679;-77
2021/11/26 04:23:35;;;;;;;25.05;12.77;;;;;;;;;;4929682;29;22099;-79
2021/11/26 04:26:02;;;;;;;29.08;13.32;;;;;;;;;;4928427;29;20195;-81
2021/11/26 04:28:29;;;;;;;20.40;12.20;;;;;;;;;;4932261;29;20222;-77
2021/11/26 04:30:59;;;;;;;23.80;13.55;;;;;;;;;;4935666;28;20571;-79
2021/11/26 04:33:26;;;;;;;20.73;13.48;;;;;;;;;;4938388;29;20511;-80
2021/11/26 04:35:54;;;;;;;24.02;13.20;;;;;;;;;;4937204;29;20309;-75
2021/11/26 04:38:22;;;;;;;26.40;15.00;;;;;;;;;;4932731;29;20549;-79
2021/11/26 04:40:49;;;;;;;22.95;12.50;;;;;;;;;;4932720;29;20199;-82
2021/11/26 04:43:16;;;;;;;22.42;14.35;;;;;;;;;;4932879;29;20198;-77
2021/11/26 04:45:44;;;;;;;25.65;14.57;;;;;;;;;;4921694;29;20235;-80
2021/11/26 04:48:11;;;;;;;29.65;13.48;;;;;;;;;;4929688;29;20239;-80
2021/11/26 04:50:38;;;;;;;22.48;12.48;;;;;;;;;;4936740;29;20202;-78
2021/11/26 04:53:07;;;;;;;20.98;11.32;;;;;;;;;;4940329;29;20661;-79
2021/11/26 04:55:35;;;;;;;18.73;12.07;;;;;;;;;;4942671;29;20308;-80
2021/11/26 04:58:02;;;;;;;24.98;14.23;;;;;;;;;;4935477;28;20700;-82
2021/11/26 05:00:30;;;;;;;21.65;12.32;;;;;;;;;;4933185;29;20202;-81
2021/11/26 05:02:57;;;;;;;22.00;12.65;;;;;;;;;;4935878;29;20213;-82
2021/11/26 05:05:25;;;;;;;18.30;12.25;;;;;;;;;;4935616;29;20512;-82
2021/11/26 05:07:52;;;;;;;18.38;13.27;;;;;;;;;;4934283;29;20222;-78
2021/11/26 05:10:21;;;;;;;18.23;12.13;;;;;;;;;;4942930;29;20670;-77
2021/11/26 05:12:52;;;;;;;22.23;12.57;;;;;;;;;;4963535;28;20213;-80
2021/11/26 05:15:24;;;;;;;18.45;11.45;;;;;;;;;;4956087;28;20222;-81
2021/11/26 05:17:52;;;;;;;16.85;11.65;;;;;;;;;;4935242;29;20222;-79
2021/11/26 05:20:22;;;;;;;23.13;13.55;;;;;;;;;;4934704;29;20829;-81
2021/11/26 05:22:49;;;;;;;16.45;11.82;;;;;;;;;;4935952;29;20616;-80
2021/11/26 05:25:17;;;;;;;19.10;12.95;;;;;;;;;;4936665;29;20203;-78
2021/11/26 05:27:44;;;;;;;17.35;11.80;;;;;;;;;;4935867;29;20697;-76
2021/11/26 05:30:13;;;;;;;17.20;12.35;;;;;;;;;;4938988;29;20206;-82
2021/11/26 05:32:41;;;;;;;18.00;11.70;;;;;;;;;;4941699;29;20199;-80
2021/11/26 05:35:09;;;;;;;15.38;12.07;;;;;;;;;;4938620;29;20310;-81
2021/11/26 05:37:36;;;;;;;21.67;12.50;;;;;;;;;;4935328;29;20222;-77
2021/11/26 05:40:04;;;;;;;22.27;13.43;;;;;;;;;;4933228;29;20672;-76
2021/11/26 05:42:32;;;;;;;20.67;12.70;;;;;;;;;;4914579;29;20206;-79
2021/11/26 05:44:59;;;;;;;22.67;12.25;;;;;;;;;;4924440;29;20254;-81
2021/11/26 05:47:28;;;;;;;17.77;12.23;;;;;;;;;;4941629;28;20587;-81
2021/11/26 05:49:55;;;;;;;15.60;11.57;;;;;;;;;;4944434;28;20202;-81
2021/11/26 05:52:22;;;;;;;17.67;11.93;;;;;;;;;;4916454;29;20208;-81
2021/11/26 05:54:49;;;;;;;18.73;12.13;;;;;;;;;;4927741;29;20222;-79
2021/11/26 05:57:16;;;;;;;16.00;12.07;;;;;;;;;;4934990;29;20239;-80
2021/11/26 05:59:44;;;;;;;18.40;12.68;;;;;;;;;;4931430;29;20204;-79
2021/11/26 06:02:11;;;;;;;19.70;12.07;;;;;;;;;;4932595;29;20561;-80
2021/11/26 06:04:39;;;;;;;19.02;13.55;;;;;;;;;;4936898;29;20198;-79
2021/11/26 06:07:07;;;;;;;17.90;12.35;;;;;;;;;;4931230;29;20225;-78
2021/11/26 06:09:34;;;;;;;24.98;12.10;;;;;;;;;;4940902;28;20198;-81
2021/11/26 06:12:01;;;;;;;15.13;11.13;;;;;;;;;;4943540;29;20256;-77
2021/11/26 06:14:29;;;;;;;16.23;11.65;;;;;;;;;;4952438;28;20202;-77
2021/11/26 06:16:56;;;;;;;15.35;11.85;;;;;;;;;;4952461;28;20237;-78
2021/11/26 06:19:23;;;;;;;14.32;10.95;;;;;;;;;;4952443;28;20224;-83
2021/11/26 06:21:51;;;;;;;16.42;12.07;;;;;;;;;;4940652;28;20202;-76
2021/11/26 06:24:19;;;;;;;16.23;11.18;;;;;;;;;;4933895;29;20575;-81
2021/11/26 06:26:46;;;;;;;14.82;10.40;;;;;;;;;;4941753;28;20583;-79
2021/11/26 06:29:13;;;;;;;16.55;10.55;;;;;;;;;;4939645;29;20210;-81
2021/11/26 06:31:41;;;;;;;13.85;10.40;;;;;;;;;;4932823;29;20202;-80
2021/11/26 06:34:08;;;;;;;14.60;9.98;;;;;;;;;;4933803;29;20245;-82
2021/11/26 06:36:37;;;;;;;12.88;8.88;;;;;;;;;;4932673;29;20218;-80
2021/11/26 06:39:06;;;;;;;12.43;8.63;;;;;;;;;;4932735;29;20644;-81
2021/11/26 06:41:33;;;;;;;11.50;8.43;;;;;;;;;;4941783;28;20209;-78
2021/11/26 06:44:00;;;;;;;9.82;8.10;;;;;;;;;;4948888;28;20213;-79
2021/11/26 06:46:27;;;;;;;11.50;8.40;;;;;;;;;;4919512;29;20204;-78
2021/11/26 06:48:55;;;;;;;12.02;9.02;;;;;;;;;;4915192;29;20214;-79
2021/11/26 06:51:22;;;;;;;8.77;7.88;;;;;;;;;;4926804;29;20557;-81
2021/11/26 06:53:49;;;;;;;19.55;12.90;;;;;;;;;;4934724;29;20202;-81
2021/11/26 06:56:18;;;;;;;15.60;9.35;;;;;;;;;;4935785;29;20223;-80
2021/11/26 06:58:45;;;;;;;10.63;7.85;;;;;;;;;;4935677;29;20231;-80
2021/11/26 07:01:12;;;;;;;7.57;6.78;;;;;;;;;;4935750;29;20213;-80
2021/11/26 07:03:40;;;;;;;13.50;6.93;;;;;;;;;;4941066;29;20207;-81
2021/11/26 07:06:07;;;;;;;11.20;7.07;;;;;;;;;;4936859;29;20250;-86
2021/11/26 07:08:34;;;;;;;11.02;6.78;;;;;;;;;;4933582;29;20222;-81
2021/11/26 07:11:02;;;;;;;7.80;7.00;;;;;;;;;;4931486;29;20242;-78
2021/11/26 07:13:30;;;;;;;9.07;6.18;;;;;;;;;;4929355;29;20202;-82
2021/11/26 07:15:57;;;;;;;9.15;6.90;;;;;;;;;;4933573;29;20230;-79
2021/11/26 07:18:25;;;;;;;10.63;7.18;;;;;;;;;;4935064;29;20214;-78
2021/11/26 07:20:52;;;;;;;11.63;7.05;;;;;;;;;;4941059;29;20189;-81
2021/11/26 07:23:33;;;;;;;9.35;7.30;;;;;;;;;;4946035;28;20519;-78
2021/11/26 07:26:00;;;;;;;8.27;6.65;;;;;;;;;;4935939;29;20682;-80
2021/11/26 07:28:28;;;;;;;11.13;7.13;;;;;;;;;;4931746;29;20223;-81
2021/11/26 07:30:56;;;;;;;10.48;6.68;;;;;;;;;;4933092;29;20213;-78
2021/11/26 07:33:24;;;;;;;12.93;6.95;;;;;;;;;;4931917;29;20323;-81
2021/11/26 07:35:51;;;;;;;8.38;6.50;;;;;;;;;;4940692;28;20227;-79
2021/11/26 07:38:18;;;;;;;7.88;6.50;;;;;;;;;;4940483;28;20227;-78
2021/11/26 07:40:46;;;;;;;9.38;6.70;;;;;;;;;;4932038;29;20199;-79
2021/11/26 07:43:13;;;;;;;8.77;5.68;;;;;;;;;;4931712;29;20723;-77
2021/11/26 07:45:41;;;;;;;7.50;5.70;;;;;;;;;;4930156;29;20205;-80
2021/11/26 07:48:09;;;;;;;7.13;5.88;;;;;;;;;;4931412;29;20221;-79
2021/11/26 07:50:36;;;;;;;8.65;5.28;;;;;;;;;;4934587;29;20205;-76
2021/11/26 07:53:04;;;;;;;6.85;5.10;;;;;;;;;;4932862;29;20202;-77
2021/11/26 07:55:31;;;;;;;5.78;4.80;;;;;;;;;;4932231;29;20222;-79
2021/11/26 07:57:58;;;;;;;7.13;4.68;;;;;;;;;;4937330;28;20257;-83
2021/11/26 08:00:26;;;;;;;6.05;4.57;;;;;;;;;;4938319;29;20206;-77
2021/11/26 08:02:55;;;;;;;4.97;4.22;;;;;;;;;;4929668;29;20205;-83
2021/11/26 08:05:23;;;;;;;5.88;4.43;;;;;;;;;;4928490;29;20198;-77
2021/11/26 08:07:51;;;;;;;4.75;4.20;;;;;;;;;;4932354;29;20218;-84
2021/11/26 08:10:18;;;;;;;7.85;4.55;;;;;;;;;;4927737;29;20302;-78
2021/11/26 08:12:46;;;;;;;6.45;4.45;;;;;;;;;;4933808;29;20417;-77
2021/11/26 08:15:14;;;;;;;5.18;4.65;;;;;;;;;;4931711;29;20203;-82
2021/11/26 08:17:41;;;;;;;5.90;4.10;;;;;;;;;;4933289;29;20309;-78
2021/11/26 08:20:09;;;;;;;5.10;4.60;;;;;;;;;;4935770;29;20194;-81
2021/11/26 08:22:38;;;;;;;4.47;4.05;;;;;;;;;;4941417;29;20366;-79
2021/11/26 08:25:05;;;;;;;5.20;4.55;;;;;;;;;;4952187;28;20697;-81
2021/11/26 08:27:33;;;;;;;6.35;5.07;;;;;;;;;;4955021;28;20565;-81
2021/11/26 08:30:00;;;;;;;10.45;5.20;;;;;;;;;;4948845;28;20203;-82
2021/11/26 08:32:28;;;;;;;6.50;4.75;;;;;;;;;;4933419;29;20681;-85
2021/11/26 08:34:55;;;;;;;5.72;4.63;;;;;;;;;;4942898;29;20289;-78
2021/11/26 08:37:22;;;;;;;5.90;4.30;;;;;;;;;;4942113;28;20226;-83
2021/11/26 08:39:51;;;;;;;9.63;5.45;;;;;;;;;;4933703;29;20202;-77
2021/11/26 08:42:18;;;;;;;19.50;6.43;;;;;;;;;;4934199;29;20554;-79
2021/11/26 08:44:48;;;;;;;34.63;8.48;;;;;;;;;;4938114;29;20297;-78
2021/11/26 08:47:15;;;;;;;38.15;8.98;;;;;;;;;;4935564;29;20221;-81
2021/11/26 08:49:43;;;;;;;68.10;11.20;;;;;;;;;;4938515;29;20617;-79
2021/11/26 08:52:12;;;;;;;17.75;7.07;;;;;;;;;;4939174;29;20289;-78
2021/11/26 08:54:39;;;;;;;86.25;11.13;;;;;;;;;;4938499;29;20221;-80
2021/11/26 08:57:10;;;;;;;38.58;9.80;;;;;;;;;;4939515;28;20234;-79
2021/11/26 09:02:04;;;;;;;93.97;16.23;;;;;;;;;;4945780;28;20203;-77
2021/11/26 09:04:31;;;;;;;41.30;12.07;;;;;;;;;;4937137;29;20450;-81
2021/11/26 09:06:58;;;;;;;34.72;9.13;;;;;;;;;;4934707;29;20219;-79
2021/11/26 09:09:25;;;;;;;28.27;10.15;;;;;;;;;;4935932;29;20218;-82
2021/11/26 09:11:53;;;;;;;15.77;8.63;;;;;;;;;;4936778;29;20210;-80
2021/11/26 09:14:22;;;;;;;22.92;7.90;;;;;;;;;;4943252;28;20264;-80
2021/11/26 09:16:50;;;;;;;18.83;9.32;;;;;;;;;;4947094;28;20230;-82
2021/11/26 09:19:17;;;;;;;20.98;8.27;;;;;;;;;;4933894;29;20230;-83
2021/11/26 09:21:45;;;;;;;83.47;11.38;;;;;;;;;;4935781;29;20207;-80
2021/11/26 09:24:13;;;;;;;26.60;10.07;;;;;;;;;;4934632;29;20211;-79
2021/11/26 09:26:40;;;;;;;18.48;9.13;;;;;;;;;;4935019;29;20229;-80
2021/11/26 09:29:07;;;;;;;21.83;10.00;;;;;;;;;;4935057;29;20232;-81
2021/11/26 09:31:36;;;;;;;15.15;8.20;;;;;;;;;;4937610;29;20261;-78
2021/11/26 09:34:04;;;;;;;15.30;7.07;;;;;;;;;;4938579;29;20233;-81
2021/11/26 09:36:35;;;;;;;12.90;7.45;;;;;;;;;;4942276;28;20699;-77
2021/11/26 09:39:03;;;;;;;16.73;7.80;;;;;;;;;;4937482;28;20199;-80
2021/11/26 09:41:30;;;;;;;16.15;7.65;;;;;;;;;;4932728;29;20297;-80
2021/11/26 09:43:59;;;;;;;22.42;8.00;;;;;;;;;;4935200;29;20202;-77
2021/11/26 09:46:29;;;;;;;17.02;7.60;;;;;;;;;;4932298;29;20657;-78
2021/11/26 09:48:58;;;;;;;17.08;8.02;;;;;;;;;;4934854;29;20207;-79
2021/11/26 09:51:25;;;;;;;14.52;7.30;;;;;;;;;;4936284;29;20212;-83
2021/11/26 09:53:53;;;;;;;14.57;7.63;;;;;;;;;;4931902;29;20213;-83
2021/11/26 09:56:20;;;;;;;15.60;7.93;;;;;;;;;;4935816;28;20226;-79
2021/11/26 09:58:47;;;;;;;19.35;8.35;;;;;;;;;;4940094;29;20231;-78
2021/11/26 10:01:15;;;;;;;16.95;7.82;;;;;;;;;;4933309;29;20226;-77
2021/11/26 10:03:43;;;;;;;11.88;7.10;;;;;;;;;;4934496;29;20222;-79
2021/11/26 10:06:25;;;;;;;23.15;7.22;;;;;;;;;;4934743;29;20207;-79
2021/11/26 10:08:56;;;;;;;17.67;7.60;;;;;;;;;;4929147;29;20253;-81
2021/11/26 10:11:25;;;;;;;15.90;8.98;;;;;;;;;;4933156;29;20199;-83
2021/11/26 10:13:52;;;;;;;26.35;10.07;;;;;;;;;;4939917;29;20731;-77
2021/11/26 10:16:21;;;;;;;13.85;7.85;;;;;;;;;;4941625;28;20569;-80
2021/11/26 10:18:49;;;;;;;16.17;7.65;;;;;;;;;;4933350;29;20210;-79
2021/11/26 10:21:17;;;;;;;18.52;7.70;;;;;;;;;;4933273;29;20206;-79
2021/11/26 10:23:47;;;;;;;10.77;6.57;;;;;;;;;;4934412;29;20202;-80
2021/11/26 10:26:15;;;;;;;15.85;6.15;;;;;;;;;;4933463;29;20199;-81
2021/11/26 10:28:44;;;;;;;12.40;6.45;;;;;;;;;;4935016;29;20206;-80
2021/11/26 10:31:18;;;;;;;11.95;6.07;;;;;;;;;;4941628;28;20570;-78
2021/11/26 10:33:46;;;;;;;7.72;5.38;;;;;;;;;;4949394;28;20201;-80
2021/11/26 10:36:13;;;;;;;13.85;5.07;;;;;;;;;;4953497;28;20202;-82
2021/11/26 10:38:40;;;;;;;11.70;5.47;;;;;;;;;;4952322;28;20217;-78
2021/11/26 10:41:11;;;;;;;16.40;6.05;;;;;;;;;;4933919;29;20281;-83
2021/11/26 10:43:44;;;;;;;12.52;5.55;;;;;;;;;;4934607;29;20206;-76
2021/11/26 10:49:06;;;;;;;11.18;5.00;;;;;;;;;;4941659;28;20199;-80
2021/11/26 10:57:24;;;;;;;12.95;5.00;;;;;;;;;;4935143;29;20234;-81
2021/11/26 10:59:52;;;;;;;13.13;3.95;;;;;;;;;;4926658;29;20205;-76
2021/11/26 11:02:27;;;;;;;6.68;3.90;;;;;;;;;;4939635;28;20205;-79
2021/11/26 11:04:54;;;;;;;9.35;4.10;;;;;;;;;;4931721;29;20495;-75
2021/11/26 11:07:22;;;;;;;7.93;4.15;;;;;;;;;;4933216;29;20215;-76
2021/11/26 11:09:52;;;;;;;10.52;3.75;;;;;;;;;;4932830;29;20207;-78
2021/11/26 11:12:30;;;;;;;6.47;3.35;;;;;;;;;;4931945;29;20657;-77
2021/11/26 11:14:58;;;;;;;9.38;3.72;;;;;;;;;;4933196;29;20293;-76
2021/11/26 11:17:28;;;;;;;12.75;3.47;;;;;;;;;;4939138;28;20501;-81
2021/11/26 11:19:57;;;;;;;8.10;3.42;;;;;;;;;;4936315;29;20211;-76
2021/11/26 11:22:25;;;;;;;6.72;2.80;;;;;;;;;;4932421;29;20689;-76
2021/11/26 11:24:52;;;;;;;7.13;3.45;;;;;;;;;;4932158;29;20214;-77
2021/11/26 11:27:21;;;;;;;7.75;2.70;;;;;;;;;;4933556;29;20225;-80
2021/11/26 11:29:48;;;;;;;12.38;3.20;;;;;;;;;;4929841;29;20471;-84
2021/11/26 11:32:16;;;;;;;6.23;3.20;;;;;;;;;;4921834;29;20205;-81
2021/11/26 11:34:46;;;;;;;4.90;2.63;;;;;;;;;;4939070;28;20462;-77
2021/11/26 11:37:18;;;;;;;4.20;2.38;;;;;;;;;;4947017;28;20750;-77
2021/11/26 11:39:45;;;;;;;3.58;2.47;;;;;;;;;;4952781;29;20209;-77
2021/11/26 11:42:13;;;;;;;6.53;3.60;;;;;;;;;;4967942;28;20202;-78
2021/11/26 11:44:44;;;;;;;7.43;3.20;;;;;;;;;;4935583;28;20493;-82
2021/11/26 11:47:19;;;;;;;4.07;2.60;;;;;;;;;;4931353;29;20506;-81
2021/11/26 11:49:47;;;;;;;2.80;2.40;;;;;;;;;;4935192;29;20202;-80
2021/11/26 11:52:15;;;;;;;5.07;2.28;;;;;;;;;;4935327;29;20645;-78
2021/11/26 11:54:43;;;;;;;4.70;2.38;;;;;;;;;;4934889;29;20213;-77
2021/11/26 11:57:21;;;;;;;2.53;2.00;;;;;;;;;;4937872;28;20237;-77
2021/11/26 11:59:51;;;;;;;3.57;2.20;;;;;;;;;;4937678;28;20865;-81
2021/11/26 12:02:24;;;;;;;3.67;2.03;;;;;;;;;;4934930;29;20894;-75
2021/11/26 12:04:53;;;;;;;7.35;2.15;;;;;;;;;;4936958;29;21016;-79
2021/11/26 12:07:23;;;;;;;4.07;1.67;;;;;;;;;;4935588;29;20743;-78
2021/11/26 12:10:01;;;;;;;4.43;2.30;;;;;;;;;;4936384;29;20209;-79
2021/11/26 12:12:28;;;;;;;8.48;3.45;;;;;;;;;;4936642;29;20453;-78
2021/11/26 12:14:57;;;;;;;14.25;4.10;;;;;;;;;;4938327;29;20198;-79
2021/11/26 12:17:27;;;;;;;4.55;2.47;;;;;;;;;;4941422;29;20218;-77
2021/11/26 12:19:59;;;;;;;6.00;3.45;;;;;;;;;;4944229;29;20198;-79
2021/11/26 12:22:32;;;;;;;8.13;3.08;;;;;;;;;;4935881;29;20203;-78
2021/11/26 12:24:59;;;;;;;4.75;2.80;;;;;;;;;;4936516;29;20206;-80
2021/11/26 12:27:37;;;;;;;6.45;2.40;;;;;;;;;;4936517;29;20228;-78
2021/11/26 12:30:16;;;;;;;4.18;2.15;;;;;;;;;;4936722;29;20206;-76
2021/11/26 12:32:46;;;;;;;5.53;2.60;;;;;;;;;;4936586;29;20562;-80
2021/11/26 12:35:15;;;;;;;2.85;2.10;;;;;;;;;;4940760;28;20238;-79
2021/11/26 12:37:45;;;;;;;7.40;3.55;;;;;;;;;;4956824;28;20309;-78
2021/11/26 12:40:13;;;;;;;4.45;2.22;;;;;;;;;;4954821;28;20206;-78
2021/11/26 12:42:40;;;;;;;13.20;2.90;;;;;;;;;;4969836;28;20213;-77
2021/11/26 12:45:11;;;;;;;4.40;2.30;;;;;;;;;;4954607;28;20202;-82
2021/11/26 12:47:40;;;;;;;6.47;2.95;;;;;;;;;;4955468;28;20230;-79
2021/11/26 12:52:50;;;;;;;4.70;2.40;;;;;;;;;;4940812;28;20206;-79
2021/11/26 12:55:18;;;;;;;5.43;2.70;;;;;;;;;;4934981;29;20210;-77
2021/11/26 12:57:52;;;;;;;5.80;2.80;;;;;;;;;;4935545;29;20251;-77
2021/11/26 13:00:21;;;;;;;5.85;2.88;;;;;;;;;;4935163;29;20213;-78
2021/11/26 13:02:48;;;;;;;6.55;3.60;;;;;;;;;;4933805;29;20569;-77
2021/11/26 13:05:16;;;;;;;3.50;2.70;;;;;;;;;;4937135;29;20211;-79
2021/11/26 13:07:44;;;;;;;3.47;1.98;;;;;;;;;;4940201;28;20309;-78
2021/11/26 13:10:13;;;;;;;4.35;2.80;;;;;;;;;;4940760;28;20207;-78
2021/11/26 13:12:41;;;;;;;5.63;2.17;;;;;;;;;;4934335;29;20262;-76
2021/11/26 13:15:10;;;;;;;7.43;2.40;;;;;;;;;;4933777;29;20658;-81
2021/11/26 13:17:40;;;;;;;6.68;3.25;;;;;;;;;;4934193;29;20494;-81
2021/11/26 13:20:10;;;;;;;9.48;3.45;;;;;;;;;;4933908;29;20665;-78
2021/11/26 13:22:41;;;;;;;5.00;2.67;;;;;;;;;;4941822;28;20323;-79
2021/11/26 13:25:09;;;;;;;6.25;2.22;;;;;;;;;;4940105;29;20713;-75
2021/11/26 13:27:45;;;;;;;6.40;2.40;;;;;;;;;;4935392;29;20743;-77
2021/11/26 13:30:17;;;;;;;4.35;2.15;;;;;;;;;;4934341;29;20198;-77
2021/11/26 13:32:45;;;;;;;7.47;2.63;;;;;;;;;;4916567;29;20203;-79
2021/11/26 13:35:13;;;;;;;5.88;2.50;;;;;;;;;;4924432;29;20195;-76
2021/11/26 13:37:50;;;;;;;4.97;2.10;;;;;;;;;;4940317;29;20589;-76
2021/11/26 13:40:17;;;;;;;5.97;2.30;;;;;;;;;;4941315;29;20285;-79
2021/11/26 13:42:51;;;;;;;4.28;3.00;;;;;;;;;;4952824;28;20216;-77
2021/11/26 13:45:18;;;;;;;7.85;3.20;;;;;;;;;;4953428;28;20292;-79
2021/11/26 13:47:47;;;;;;;7.25;4.10;;;;;;;;;;4956415;28;20691;-76
2021/11/26 13:50:14;;;;;;;4.72;2.85;;;;;;;;;;4937866;29;20198;-81
2021/11/26 13:52:42;;;;;;;5.88;2.42;;;;;;;;;;4933011;29;20661;-80
2021/11/26 13:55:09;;;;;;;6.13;2.40;;;;;;;;;;4942222;28;20274;-77
2021/11/26 13:57:37;;;;;;;8.05;2.70;;;;;;;;;;4944181;28;20248;-79
2021/11/26 14:00:07;;;;;;;6.43;2.63;;;;;;;;;;4947716;28;20222;-77
2021/11/26 14:02:34;;;;;;;5.00;3.00;;;;;;;;;;4934562;29;20553;-79
2021/11/26 14:05:02;;;;;;;3.33;2.25;;;;;;;;;;4934765;29;20206;-81
2021/11/26 14:07:30;;;;;;;4.93;2.40;;;;;;;;;;4933968;29;20225;-77
2021/11/26 14:10:06;;;;;;;5.53;2.42;;;;;;;;;;4938354;29;20217;-78
2021/11/26 14:12:34;;;;;;;10.43;3.13;;;;;;;;;;4942140;28;20571;-80
2021/11/26 14:15:01;;;;;;;4.70;2.83;;;;;;;;;;4951533;28;20718;-80
2021/11/26 14:17:29;;;;;;;8.95;3.40;;;;;;;;;;4940551;29;20734;-77
2021/11/26 14:19:57;;;;;;;4.95;3.40;;;;;;;;;;4934388;29;20199;-80
2021/11/26 14:22:27;;;;;;;11.93;2.97;;;;;;;;;;4933910;29;20203;-77
2021/11/26 14:24:55;;;;;;;4.93;2.40;;;;;;;;;;4932830;29;20202;-79
2021/11/26 14:27:27;;;;;;;7.35;2.67;;;;;;;;;;4938291;29;20226;-77
2021/11/26 14:29:55;;;;;;;2.72;2.13;;;;;;;;;;4939757;29;20561;-76
2021/11/26 14:32:23;;;;;;;6.90;2.60;;;;;;;;;;4949002;29;20237;-75
2021/11/26 14:34:52;;;;;;;5.15;3.33;;;;;;;;;;4935166;29;20437;-79
2021/11/26 14:37:20;;;;;;;7.57;3.75;;;;;;;;;;4914299;29;20223;-81
2021/11/26 14:39:49;;;;;;;10.30;3.15;;;;;;;;;;4915659;29;20561;-81
2021/11/26 14:42:17;;;;;;;9.45;3.50;;;;;;;;;;4935080;29;20214;-79
2021/11/26 14:44:45;;;;;;;7.20;3.45;;;;;;;;;;4935016;29;20262;-78
2021/11/26 14:47:13;;;;;;;16.15;4.90;;;;;;;;;;4934616;28;20226;-82
2021/11/26 14:49:46;;;;;;;12.43;4.00;;;;;;;;;;4954840;28;20201;-78